Time;durP1;ratioP1;P1;durP2;ratioP2;P2;SDS_P1;SDS_P2;PMS_P1;PMS_P2;Temp;Humidity;BMP_temperature;BMP_pressure;BME280_temperature;BME280_humidity;BME280_pressure;Samples;Min_cycle;Max_cycle;Signal;HPM_P1;HPM_P2
2023/08/11 00:01:51;;;;;;;3.10;2.37;;;15.00;99.90;;;;;;5029659;28;20506;-68
2023/08/11 00:04:19;;;;;;;2.37;2.17;;;15.00;99.90;;;;;;5106200;22;20495;-72
2023/08/11 00:06:45;;;;;;;3.03;2.57;;;14.90;99.90;;;;;;5041293;28;20963;-72
2023/08/11 00:09:13;;;;;;;2.60;2.40;;;14.90;99.90;;;;;;5040922;28;20501;-71
2023/08/11 00:11:41;;;;;;;2.93;2.40;;;14.90;99.90;;;;;;5063373;28;20544;-71
2023/08/11 00:14:07;;;;;;;3.10;2.60;;;14.80;99.90;;;;;;5061227;28;20994;-72
2023/08/11 00:16:34;;;;;;;4.03;2.67;;;14.80;99.90;;;;;;5070544;28;20458;-71
2023/08/11 00:19:01;;;;;;;2.57;2.37;;;14.80;99.90;;;;;;5072927;28;20481;-72
2023/08/11 00:21:29;;;;;;;2.80;2.50;;;14.80;99.90;;;;;;5073031;28;20467;-72
2023/08/11 00:23:56;;;;;;;2.50;2.23;;;14.80;99.90;;;;;;5073348;28;20459;-72
2023/08/11 00:26:22;;;;;;;3.70;2.90;;;14.80;99.90;;;;;;5072569;28;20462;-72
2023/08/11 00:28:49;;;;;;;2.97;2.47;;;14.80;99.90;;;;;;5072939;28;20476;-74
2023/08/11 00:31:16;;;;;;;2.67;2.47;;;14.70;99.90;;;;;;5072871;28;20465;-73
2023/08/11 00:33:46;;;;;;;2.43;2.23;;;14.70;99.90;;;;;;5072860;28;20450;-73
2023/08/11 00:36:13;;;;;;;2.80;2.40;;;14.70;99.90;;;;;;5072846;28;20454;-73
2023/08/11 00:38:41;;;;;;;4.40;2.80;;;14.60;99.90;;;;;;5072401;28;20563;-73
2023/08/11 00:41:08;;;;;;;3.50;2.40;;;14.60;99.90;;;;;;5072662;28;20836;-73
2023/08/11 00:43:35;;;;;;;2.50;2.30;;;14.60;99.90;;;;;;5072541;28;20515;-73
2023/08/11 00:46:10;;;;;;;3.23;2.20;;;14.50;99.90;;;;;;5072748;28;20467;-73
2023/08/11 00:48:37;;;;;;;3.00;2.50;;;14.50;99.90;;;;;;5072222;28;20576;-73
2023/08/11 00:51:05;;;;;;;3.13;2.70;;;14.50;99.90;;;;;;5072660;28;20455;-73
2023/08/11 00:53:32;;;;;;;3.03;2.43;;;14.50;99.90;;;;;;5072613;28;20463;-73
2023/08/11 00:56:02;;;;;;;3.00;2.70;;;14.40;99.90;;;;;;5072394;28;20947;-74
2023/08/11 00:58:30;;;;;;;2.60;2.03;;;14.40;99.90;;;;;;5072050;28;20478;-73
2023/08/11 01:00:57;;;;;;;2.70;2.50;;;14.40;99.90;;;;;;5072848;28;20454;-73
2023/08/11 01:03:24;;;;;;;3.70;2.40;;;14.40;99.90;;;;;;5072103;28;20485;-73
2023/08/11 01:05:57;;;;;;;2.83;2.37;;;14.40;99.90;;;;;;5072640;28;20461;-74
2023/08/11 01:08:32;;;;;;;3.00;2.37;;;14.40;99.90;;;;;;5071797;28;20564;-73
2023/08/11 01:11:08;;;;;;;3.90;2.47;;;14.40;99.90;;;;;;5072537;28;20463;-73
2023/08/11 01:13:41;;;;;;;3.73;2.63;;;14.30;99.90;;;;;;5072227;28;20552;-73
2023/08/11 01:16:09;;;;;;;2.10;1.90;;;14.30;99.90;;;;;;5071922;28;20957;-74
2023/08/11 01:18:36;;;;;;;3.20;2.47;;;14.30;99.90;;;;;;5071685;28;20477;-73
2023/08/11 01:21:08;;;;;;;3.23;2.10;;;14.30;99.90;;;;;;5072174;28;20550;-73
2023/08/11 01:23:36;;;;;;;3.70;2.83;;;14.30;99.90;;;;;;5059569;28;20474;-73
2023/08/11 01:26:03;;;;;;;3.67;2.20;;;14.20;99.90;;;;;;5052043;28;20621;-74
2023/08/11 01:28:30;;;;;;;2.17;1.97;;;14.20;99.90;;;;;;5051083;28;20496;-73
2023/08/11 01:30:57;;;;;;;2.70;2.30;;;14.20;99.90;;;;;;5051975;28;20944;-73
2023/08/11 01:33:24;;;;;;;3.20;1.80;;;14.20;99.90;;;;;;5051670;28;20453;-73
2023/08/11 01:35:51;;;;;;;2.40;2.20;;;14.10;99.90;;;;;;5051949;28;20461;-73
2023/08/11 01:38:17;;;;;;;2.43;2.23;;;14.20;99.90;;;;;;5051162;28;20508;-73
2023/08/11 01:40:47;;;;;;;2.63;2.43;;;14.20;99.90;;;;;;5051754;28;20458;-74
2023/08/11 01:43:15;;;;;;;3.60;2.80;;;14.10;99.90;;;;;;5051407;28;21113;-73
2023/08/11 01:45:43;;;;;;;3.70;2.73;;;14.10;99.90;;;;;;5051611;28;20509;-73
2023/08/11 01:48:10;;;;;;;3.03;2.40;;;14.10;99.90;;;;;;5051061;28;20865;-73
2023/08/11 01:50:38;;;;;;;2.63;2.43;;;14.10;99.90;;;;;;5051567;28;20465;-73
2023/08/11 01:53:05;;;;;;;3.00;2.50;;;14.00;99.90;;;;;;5051519;28;20456;-73
2023/08/11 01:55:32;;;;;;;2.83;2.53;;;14.00;99.90;;;;;;5051211;28;20464;-73
2023/08/11 01:58:00;;;;;;;2.47;2.13;;;13.90;99.90;;;;;;5051334;28;20463;-73
2023/08/11 02:00:27;;;;;;;3.57;3.00;;;14.00;99.90;;;;;;5050748;28;20961;-73
2023/08/11 02:02:54;;;;;;;3.83;2.70;;;13.90;99.90;;;;;;5051409;28;20928;-73
2023/08/11 02:05:24;;;;;;;2.70;2.50;;;13.90;99.90;;;;;;5050917;28;20472;-73
2023/08/11 02:07:52;;;;;;;3.13;2.40;;;13.90;99.90;;;;;;5050969;28;20976;-73
2023/08/11 02:10:18;;;;;;;3.07;2.77;;;13.80;99.90;;;;;;5050673;28;20462;-73
2023/08/11 02:12:45;;;;;;;3.97;3.00;;;13.80;99.90;;;;;;5051346;28;20827;-73
2023/08/11 02:15:13;;;;;;;3.70;2.80;;;13.80;99.90;;;;;;5051031;28;20462;-73
2023/08/11 02:17:40;;;;;;;3.97;3.07;;;13.80;99.90;;;;;;5050707;28;20959;-73
2023/08/11 02:20:17;;;;;;;4.03;3.53;;;13.70;99.90;;;;;;5050668;28;21094;-73
2023/08/11 02:22:44;;;;;;;3.20;2.90;;;13.70;99.90;;;;;;5050852;28;20473;-73
2023/08/11 02:25:11;;;;;;;3.50;3.20;;;13.70;99.90;;;;;;5050995;28;20455;-73
2023/08/11 02:27:38;;;;;;;2.70;2.50;;;13.60;99.90;;;;;;5050569;28;20462;-73
2023/08/11 02:30:06;;;;;;;3.10;2.50;;;13.60;99.90;;;;;;5050556;28;20476;-74
2023/08/11 02:32:34;;;;;;;2.93;2.63;;;13.60;99.90;;;;;;5050514;28;20453;-73
2023/08/11 02:35:01;;;;;;;5.20;2.87;;;13.60;99.90;;;;;;5050704;28;20463;-73
2023/08/11 02:37:28;;;;;;;3.27;2.40;;;13.60;99.90;;;;;;5068735;28;20459;-73
2023/08/11 02:39:55;;;;;;;3.33;2.20;;;13.60;99.90;;;;;;5069655;28;20488;-73
2023/08/11 02:42:21;;;;;;;3.87;3.00;;;13.60;99.90;;;;;;5070221;28;20843;-73
2023/08/11 02:44:49;;;;;;;2.80;2.60;;;13.50;99.90;;;;;;5070516;28;20963;-73
2023/08/11 02:47:15;;;;;;;2.60;2.20;;;13.50;99.90;;;;;;5070122;28;20455;-73
2023/08/11 02:49:43;;;;;;;7.40;3.20;;;13.50;99.90;;;;;;5070082;28;20476;-73
2023/08/11 02:52:11;;;;;;;2.80;2.50;;;13.50;99.90;;;;;;5070474;28;20935;-73
2023/08/11 02:54:38;;;;;;;3.77;3.43;;;13.50;99.90;;;;;;5070054;28;20459;-73
2023/08/11 02:57:05;;;;;;;3.87;2.73;;;13.50;99.90;;;;;;5070184;28;20468;-73
2023/08/11 02:59:32;;;;;;;3.20;2.90;;;13.50;99.90;;;;;;5069626;28;20584;-74
2023/08/11 03:01:59;;;;;;;4.90;3.03;;;13.50;99.90;;;;;;5070456;28;20460;-73
2023/08/11 03:04:25;;;;;;;3.40;3.10;;;13.40;99.90;;;;;;5069844;28;20488;-73
2023/08/11 03:06:54;;;;;;;4.10;3.17;;;13.50;99.90;;;;;;5070107;28;20938;-73
2023/08/11 03:09:21;;;;;;;3.17;2.70;;;13.40;99.90;;;;;;5069593;28;20563;-73
2023/08/11 03:11:48;;;;;;;2.27;2.07;;;13.40;99.90;;;;;;5070264;28;20955;-73
2023/08/11 03:14:14;;;;;;;3.20;2.20;;;13.40;99.90;;;;;;5070179;28;20463;-73
2023/08/11 03:16:41;;;;;;;3.93;2.87;;;13.40;99.90;;;;;;5069616;28;20959;-73
2023/08/11 03:19:08;;;;;;;2.90;2.40;;;13.40;99.90;;;;;;5069814;28;20982;-73
2023/08/11 03:21:34;;;;;;;3.77;3.33;;;13.40;99.90;;;;;;5069824;28;20457;-74
2023/08/11 03:24:03;;;;;;;2.97;2.37;;;13.30;99.90;;;;;;5070067;28;20483;-72
2023/08/11 03:26:29;;;;;;;4.40;3.40;;;13.30;99.90;;;;;;5069224;28;20807;-73
2023/08/11 03:28:56;;;;;;;4.13;2.90;;;13.30;99.90;;;;;;5069506;28;20475;-73
2023/08/11 03:31:23;;;;;;;3.13;2.60;;;13.20;99.90;;;;;;5069388;28;20459;-73
2023/08/11 03:33:50;;;;;;;3.00;2.60;;;13.20;99.90;;;;;;5069889;28;20448;-73
2023/08/11 03:36:16;;;;;;;2.57;2.03;;;13.20;99.90;;;;;;5069403;28;20951;-74
2023/08/11 03:38:43;;;;;;;5.30;3.20;;;13.20;99.90;;;;;;5069117;28;21056;-74
2023/08/11 03:41:11;;;;;;;5.23;2.40;;;13.20;99.90;;;;;;5069918;28;20457;-74
2023/08/11 03:43:38;;;;;;;4.13;2.10;;;13.20;99.90;;;;;;5069284;28;20490;-73
2023/08/11 03:46:05;;;;;;;3.67;2.87;;;13.20;99.90;;;;;;5069415;28;20973;-73
2023/08/11 03:48:32;;;;;;;2.50;2.30;;;13.20;99.90;;;;;;5050843;28;20475;-73
2023/08/11 03:51:00;;;;;;;3.00;2.40;;;13.20;99.90;;;;;;5050816;28;21079;-73
2023/08/11 03:53:26;;;;;;;3.23;2.57;;;13.20;99.90;;;;;;5052889;28;20483;-74
2023/08/11 03:55:54;;;;;;;2.93;2.73;;;13.10;99.90;;;;;;5053059;28;20459;-73
2023/08/11 03:58:23;;;;;;;2.37;2.17;;;13.10;99.90;;;;;;5052590;28;20486;-74
2023/08/11 04:00:49;;;;;;;2.97;2.67;;;13.10;99.90;;;;;;5053106;28;20874;-73
2023/08/11 04:03:16;;;;;;;4.30;2.80;;;13.10;99.90;;;;;;5052391;28;20574;-74
2023/08/11 04:05:44;;;;;;;3.13;2.90;;;13.10;99.90;;;;;;5052500;28;20460;-74
2023/08/11 04:08:11;;;;;;;6.73;2.97;;;13.10;99.90;;;;;;5052256;28;20555;-73
2023/08/11 04:10:38;;;;;;;3.40;2.90;;;13.10;99.90;;;;;;5052381;28;20455;-73
2023/08/11 04:13:05;;;;;;;3.92;3.42;;;13.10;99.90;;;;;;5054632;28;20451;-72
2023/08/11 04:15:33;;;;;;;3.30;3.00;;;13.10;99.90;;;;;;5052238;28;20464;-73
2023/08/11 04:18:00;;;;;;;2.90;2.60;;;13.00;99.90;;;;;;5052344;28;20451;-72
2023/08/11 04:20:28;;;;;;;3.40;3.10;;;13.10;99.90;;;;;;5049398;28;20466;-72
2023/08/11 04:22:55;;;;;;;4.27;3.80;;;13.00;99.90;;;;;;5052701;28;20459;-72
2023/08/11 04:25:22;;;;;;;4.57;2.50;;;13.10;99.90;;;;;;5052596;28;20550;-73
2023/08/11 04:27:49;;;;;;;3.03;2.73;;;13.10;99.90;;;;;;5052255;28;20824;-73
2023/08/11 04:30:16;;;;;;;3.03;2.67;;;13.00;99.90;;;;;;5052012;28;20481;-72
2023/08/11 04:32:44;;;;;;;6.30;2.70;;;13.10;99.90;;;;;;5050265;28;20831;-72
2023/08/11 04:35:11;;;;;;;3.03;2.47;;;13.00;99.90;;;;;;5050159;28;20460;-72
2023/08/11 04:37:38;;;;;;;3.40;2.60;;;13.00;99.90;;;;;;5049929;28;20459;-72
2023/08/11 04:40:09;;;;;;;2.50;2.30;;;13.00;99.90;;;;;;5049990;28;20476;-73
2023/08/11 04:42:36;;;;;;;2.57;2.37;;;13.00;99.90;;;;;;5050054;28;20455;-72
2023/08/11 04:45:03;;;;;;;3.80;2.20;;;13.10;99.90;;;;;;5050884;28;20479;-72
2023/08/11 04:47:30;;;;;;;3.10;2.80;;;13.10;99.90;;;;;;5052316;28;20460;-72
2023/08/11 04:49:58;;;;;;;3.80;2.80;;;13.10;99.90;;;;;;5064811;28;20498;-72
2023/08/11 04:52:25;;;;;;;3.23;3.03;;;13.10;99.90;;;;;;5072753;28;20830;-73
2023/08/11 04:54:52;;;;;;;3.80;2.83;;;13.10;99.90;;;;;;5072337;28;20459;-72
2023/08/11 04:57:18;;;;;;;3.10;2.37;;;13.20;99.90;;;;;;5072502;28;20507;-72
2023/08/11 04:59:46;;;;;;;3.40;2.40;;;13.20;99.90;;;;;;5061095;28;20476;-73
2023/08/11 05:02:13;;;;;;;3.47;2.90;;;13.20;99.90;;;;;;5052093;28;20486;-72
2023/08/11 05:04:40;;;;;;;3.23;2.43;;;13.30;99.90;;;;;;5051868;28;20492;-73
2023/08/11 05:07:08;;;;;;;2.60;2.40;;;13.30;99.90;;;;;;5052268;28;20464;-73
2023/08/11 05:09:36;;;;;;;2.80;2.60;;;13.40;99.90;;;;;;5051684;28;20476;-72
2023/08/11 05:12:03;;;;;;;3.20;2.90;;;13.40;99.90;;;;;;5052356;28;20459;-72
2023/08/11 05:14:29;;;;;;;5.13;3.10;;;13.50;99.90;;;;;;5051488;28;20457;-72
2023/08/11 05:16:56;;;;;;;3.40;3.10;;;13.50;99.90;;;;;;5052035;28;20461;-72
2023/08/11 05:19:25;;;;;;;3.47;2.97;;;13.60;99.90;;;;;;5051792;28;20480;-73
2023/08/11 05:21:52;;;;;;;2.83;2.60;;;13.70;99.90;;;;;;5052012;28;20462;-73
2023/08/11 05:24:20;;;;;;;3.17;2.87;;;13.70;99.90;;;;;;5052074;28;20481;-72
2023/08/11 05:26:47;;;;;;;3.30;3.00;;;13.80;99.90;;;;;;5053894;28;20461;-72
2023/08/11 05:29:13;;;;;;;3.17;2.87;;;13.80;99.90;;;;;;5071648;28;20504;-72
2023/08/11 05:31:40;;;;;;;3.33;3.03;;;13.90;99.90;;;;;;5071635;28;20455;-72
2023/08/11 05:34:09;;;;;;;3.67;2.87;;;14.00;99.90;;;;;;5071791;28;20451;-72
2023/08/11 05:36:36;;;;;;;4.07;3.73;;;14.10;99.90;;;;;;5071377;28;20466;-73
2023/08/11 05:39:04;;;;;;;5.67;2.77;;;14.20;99.90;;;;;;5061760;28;20473;-72
2023/08/11 05:41:32;;;;;;;2.97;2.70;;;14.20;99.90;;;;;;5051218;28;20462;-72
2023/08/11 05:43:58;;;;;;;2.70;2.47;;;14.30;99.90;;;;;;5043812;28;20564;-73
2023/08/11 05:46:25;;;;;;;2.63;2.43;;;14.40;99.90;;;;;;5047656;28;20457;-72
2023/08/11 05:48:52;;;;;;;3.60;2.50;;;14.50;99.90;;;;;;5047589;28;20856;-72
2023/08/11 05:51:19;;;;;;;2.90;2.63;;;14.60;99.90;;;;;;5056023;28;20449;-72
2023/08/11 05:53:46;;;;;;;2.50;2.30;;;14.70;99.90;;;;;;5050729;28;20460;-72
2023/08/11 05:56:13;;;;;;;3.63;3.07;;;14.70;99.90;;;;;;5051098;28;20981;-73
2023/08/11 05:58:41;;;;;;;3.70;3.07;;;14.80;99.90;;;;;;5050176;28;20472;-73
2023/08/11 06:01:08;;;;;;;4.43;3.10;;;15.00;99.90;;;;;;5051225;28;20461;-73
2023/08/11 06:03:35;;;;;;;3.00;2.63;;;15.00;99.90;;;;;;5059095;28;20482;-73
2023/08/11 06:06:02;;;;;;;6.57;3.10;;;15.20;99.90;;;;;;5087171;22;21003;-92
2023/08/11 06:08:29;;;;;;;2.90;2.57;;;15.30;99.90;;;;;;5062908;28;20446;-92
2023/08/11 06:10:55;;;;;;;3.13;2.83;;;15.40;99.90;;;;;;5065811;28;20460;-92
2023/08/11 06:13:22;;;;;;;3.30;3.00;;;15.50;99.90;;;;;;5065145;28;20530;-92
2023/08/11 06:15:51;;;;;;;3.80;3.10;;;15.70;99.90;;;;;;5071440;28;20485;-92
2023/08/11 06:18:17;;;;;;;4.50;4.07;;;15.80;99.90;;;;;;5074634;28;20457;-92
2023/08/11 06:20:44;;;;;;;4.00;3.07;;;15.90;99.90;;;;;;5074889;28;20469;-93
2023/08/11 06:23:12;;;;;;;3.00;2.70;;;16.00;99.90;;;;;;5074547;28;20466;-92
2023/08/11 06:25:38;;;;;;;3.10;2.80;;;16.20;99.90;;;;;;5074599;28;20826;-91
2023/08/11 06:28:07;;;;;;;5.77;3.03;;;16.30;99.90;;;;;;5075240;28;20461;-92
2023/08/11 06:30:33;;;;;;;2.43;2.17;;;16.40;99.90;;;;;;5076974;28;20461;-94
2023/08/11 06:33:02;;;;;;;3.27;2.90;;;16.50;99.90;;;;;;5073762;28;20810;-93
2023/08/11 06:35:29;;;;;;;3.30;2.90;;;16.70;99.90;;;;;;5074051;28;20482;-93
2023/08/11 06:37:56;;;;;;;3.10;2.63;;;16.80;99.90;;;;;;5062732;28;20463;-91
2023/08/11 06:40:23;;;;;;;3.00;2.70;;;17.00;99.90;;;;;;5074646;28;20550;-91
2023/08/11 06:42:50;;;;;;;3.73;2.97;;;17.10;99.90;;;;;;5073878;28;20447;-92
2023/08/11 06:45:17;;;;;;;3.30;3.00;;;17.20;99.90;;;;;;5077262;28;20509;-92
2023/08/11 06:47:44;;;;;;;3.07;2.80;;;17.40;99.90;;;;;;5065306;28;20827;-92
2023/08/11 06:50:12;;;;;;;2.87;2.60;;;17.60;99.90;;;;;;5050235;28;20508;-95
2023/08/11 06:52:39;;;;;;;4.30;2.63;;;17.80;99.90;;;;;;5083101;28;20462;-93
2023/08/11 06:55:06;;;;;;;3.40;2.67;;;18.00;99.90;;;;;;5048972;28;20787;-92
2023/08/11 06:57:33;;;;;;;2.83;2.63;;;18.10;99.90;;;;;;5062547;28;20475;-93
2023/08/11 07:00:00;;;;;;;2.73;2.53;;;18.30;99.90;;;;;;5057659;28;23647;-92
2023/08/11 07:02:27;;;;;;;2.57;2.37;;;18.40;99.90;;;;;;5064782;28;20559;-92
2023/08/11 07:04:53;;;;;;;4.00;2.63;;;18.60;99.90;;;;;;5056810;28;20523;-93
2023/08/11 07:07:22;;;;;;;2.90;2.60;;;18.70;99.90;;;;;;5058868;28;20467;-93
2023/08/11 07:09:48;;;;;;;4.57;2.70;;;18.80;99.90;;;;;;5057966;28;20527;-93
2023/08/11 07:12:15;;;;;;;2.77;2.57;;;18.90;99.90;;;;;;5058622;28;20465;-93
2023/08/11 07:14:42;;;;;;;2.90;2.60;;;18.90;99.90;;;;;;5058456;28;20508;-92
2023/08/11 07:17:09;;;;;;;2.67;2.47;;;19.00;99.90;;;;;;5057102;28;20547;-93
2023/08/11 07:19:36;;;;;;;3.03;2.77;;;19.10;99.90;;;;;;5068926;28;20475;-94
2023/08/11 07:22:03;;;;;;;2.70;2.50;;;19.10;99.90;;;;;;5071023;28;20462;-95
2023/08/11 07:24:31;;;;;;;2.37;2.20;;;19.30;99.90;;;;;;5073895;28;20480;-93
2023/08/11 07:26:58;;;;;;;3.07;2.77;;;19.50;99.90;;;;;;5065781;28;20465;-94
2023/08/11 07:29:25;;;;;;;2.73;2.53;;;19.70;99.90;;;;;;5072754;28;20672;-94
2023/08/11 07:31:52;;;;;;;3.77;2.80;;;19.90;99.90;;;;;;5072928;28;20445;-93
2023/08/11 07:34:19;;;;;;;3.20;2.70;;;20.10;99.90;;;;;;5080359;28;20473;-93
2023/08/11 07:36:45;;;;;;;2.80;2.60;;;20.20;99.90;;;;;;5071729;28;20472;-94
2023/08/11 07:39:12;;;;;;;2.57;2.37;;;20.30;99.90;;;;;;5071628;28;20474;-93
2023/08/11 07:41:40;;;;;;;3.93;2.73;;;20.40;99.90;;;;;;5071114;28;20465;-94
2023/08/11 07:44:07;;;;;;;3.60;2.90;;;20.50;99.90;;;;;;5093432;28;20486;-95
2023/08/11 07:46:34;;;;;;;3.17;2.90;;;20.60;99.90;;;;;;5079533;28;20489;-94
2023/08/11 07:49:01;;;;;;;3.53;3.00;;;20.60;99.90;;;;;;5082737;28;20498;-94
2023/08/11 07:51:28;;;;;;;3.80;3.03;;;20.70;99.90;;;;;;5064884;28;20477;-94
2023/08/11 07:53:55;;;;;;;2.40;2.20;;;20.80;99.90;;;;;;5055879;28;20887;-95
2023/08/11 07:56:21;;;;;;;2.80;2.60;;;21.00;99.90;;;;;;5047994;28;20545;-93
2023/08/11 07:58:52;;;;;;;2.83;2.40;;;21.00;99.90;;;;;;5061668;28;20547;-92
2023/08/11 08:01:19;;;;;;;2.70;2.50;;;21.10;99.90;;;;;;5041850;28;20540;-95
2023/08/11 08:03:46;;;;;;;2.60;2.40;;;21.20;99.90;;;;;;5054204;28;20472;-94
2023/08/11 08:06:14;;;;;;;2.70;2.50;;;21.30;99.90;;;;;;5056648;28;20490;-93
2023/08/11 08:08:41;;;;;;;2.70;2.50;;;21.40;99.90;;;;;;5061447;28;20475;-95
2023/08/11 08:11:17;;;;;;;2.80;2.20;;;21.50;99.90;;;;;;5081614;28;20633;-94
2023/08/11 08:13:45;;;;;;;5.20;2.47;;;21.60;99.90;;;;;;5084726;28;20458;-94
2023/08/11 08:16:14;;;;;;;2.97;2.53;;;21.70;99.90;;;;;;5077253;28;20507;-94
2023/08/11 08:18:40;;;;;;;2.87;2.63;;;21.80;99.90;;;;;;5090734;28;20517;-95
2023/08/11 08:21:07;;;;;;;2.70;2.50;;;21.90;99.90;;;;;;5101912;28;20482;-96
2023/08/11 08:23:43;;;;;;;3.30;2.43;;;22.00;99.90;;;;;;5103045;28;20455;-96
2023/08/11 08:26:13;;;;;;;3.10;2.80;;;22.10;99.90;;;;;;5102736;28;20471;-95
2023/08/11 08:28:40;;;;;;;2.67;2.37;;;22.30;99.90;;;;;;5082621;22;20520;-70
2023/08/11 08:31:07;;;;;;;2.63;2.43;;;22.30;99.90;;;;;;5075409;28;20512;-70
2023/08/11 08:33:35;;;;;;;2.33;2.10;;;22.40;99.90;;;;;;5075044;28;20451;-70
2023/08/11 08:36:02;;;;;;;2.90;2.63;;;22.50;99.90;;;;;;5075710;28;20530;-70
2023/08/11 08:38:29;;;;;;;2.80;2.60;;;22.60;99.90;;;;;;5064409;28;20498;-70
2023/08/11 08:40:57;;;;;;;2.87;2.57;;;22.70;99.90;;;;;;5072492;28;20467;-70
2023/08/11 08:43:25;;;;;;;2.60;2.40;;;22.80;99.90;;;;;;5072409;28;20537;-70
2023/08/11 08:45:53;;;;;;;2.80;2.60;;;22.90;99.90;;;;;;5071494;28;20934;-70
2023/08/11 08:48:26;;;;;;;2.60;2.40;;;23.00;99.90;;;;;;5072113;28;20480;-70
2023/08/11 08:50:54;;;;;;;2.80;2.60;;;23.20;99.90;;;;;;5072278;28;20937;-70
2023/08/11 08:53:22;;;;;;;3.20;2.77;;;23.30;99.90;;;;;;5071992;28;20901;-70
2023/08/11 08:55:49;;;;;;;3.03;2.70;;;23.40;99.90;;;;;;5072156;28;20455;-70
2023/08/11 08:58:16;;;;;;;3.13;2.67;;;23.60;99.90;;;;;;5071246;28;20547;-70
2023/08/11 09:00:43;;;;;;;3.00;2.70;;;23.70;99.90;;;;;;5071601;28;20461;-70
2023/08/11 09:03:11;;;;;;;3.03;2.67;;;23.70;99.90;;;;;;5071971;28;20473;-70
2023/08/11 09:05:39;;;;;;;2.27;2.07;;;23.90;99.90;;;;;;5072042;28;20555;-70
2023/08/11 09:08:08;;;;;;;3.10;2.70;;;23.90;99.90;;;;;;5071324;28;20475;-70
2023/08/11 09:10:37;;;;;;;3.00;2.67;;;24.10;99.90;;;;;;5071196;28;20462;-70
2023/08/11 09:13:04;;;;;;;2.87;2.63;;;24.10;99.90;;;;;;5052893;28;20513;-70
2023/08/11 09:15:32;;;;;;;3.20;2.90;;;24.20;99.90;;;;;;5051691;28;20461;-70
2023/08/11 09:18:00;;;;;;;2.40;2.20;;;24.30;99.90;;;;;;5051342;28;20451;-70
2023/08/11 09:20:27;;;;;;;3.97;3.20;;;24.30;99.90;;;;;;5051635;28;20459;-70
2023/08/11 09:22:54;;;;;;;2.47;2.27;;;24.30;99.90;;;;;;5050854;28;20897;-70
2023/08/11 09:25:22;;;;;;;4.43;3.30;;;24.40;99.90;;;;;;5052057;28;20561;-70
2023/08/11 09:27:51;;;;;;;3.10;2.67;;;24.50;99.90;;;;;;5051005;28;20857;-70
2023/08/11 09:30:18;;;;;;;3.00;2.80;;;24.60;99.90;;;;;;5050605;28;21157;-70
2023/08/11 09:32:48;;;;;;;2.57;2.37;;;24.70;99.90;;;;;;5067022;28;20482;-70
2023/08/11 09:35:15;;;;;;;2.80;2.33;;;24.80;99.90;;;;;;5059792;28;20448;-70
2023/08/11 09:37:43;;;;;;;2.50;2.30;;;24.90;99.90;;;;;;5059541;28;20496;-70
2023/08/11 09:40:12;;;;;;;2.67;2.47;;;25.00;99.90;;;;;;5050843;28;20529;-71
2023/08/11 09:42:42;;;;;;;2.57;2.37;;;25.10;99.90;;;;;;5051278;28;20865;-69
2023/08/11 09:45:09;;;;;;;3.57;3.07;;;25.20;99.90;;;;;;5051053;28;20491;-70
2023/08/11 09:47:36;;;;;;;3.50;3.20;;;25.30;99.90;;;;;;5046221;28;20468;-70
2023/08/11 09:50:03;;;;;;;2.80;2.60;;;25.30;99.90;;;;;;5047420;28;20486;-70
2023/08/11 09:52:32;;;;;;;2.60;2.40;;;25.40;99.90;;;;;;5048725;28;20474;-70
2023/08/11 09:54:59;;;;;;;3.10;2.80;;;25.50;99.90;;;;;;5048787;28;20456;-69
2023/08/11 09:57:27;;;;;;;3.30;2.93;;;25.60;99.90;;;;;;5049370;28;20464;-70
2023/08/11 09:59:57;;;;;;;2.83;2.57;;;25.70;99.90;;;;;;5052166;28;20483;-70
2023/08/11 10:02:28;;;;;;;2.60;2.40;;;25.80;99.90;;;;;;5050013;28;20460;-70
2023/08/11 10:04:59;;;;;;;2.80;2.50;;;25.90;99.90;;;;;;5049829;28;21010;-70
2023/08/11 10:07:33;;;;;;;2.70;2.50;;;26.10;99.90;;;;;;5049571;28;20471;-70
2023/08/11 10:10:05;;;;;;;2.00;1.90;;;26.20;99.90;;;;;;5049165;28;20478;-69
2023/08/11 10:12:33;;;;;;;4.20;2.60;;;26.20;99.90;;;;;;5049023;28;20468;-69
2023/08/11 10:15:03;;;;;;;2.87;2.60;;;26.30;99.90;;;;;;5051120;28;20959;-70
2023/08/11 10:17:30;;;;;;;2.87;2.67;;;26.50;99.90;;;;;;5049707;28;20546;-70
2023/08/11 10:20:04;;;;;;;3.13;2.47;;;26.60;99.90;;;;;;5058431;28;21000;-70
2023/08/11 10:22:31;;;;;;;2.70;2.50;;;26.70;99.90;;;;;;5050072;28;20463;-70
2023/08/11 10:24:58;;;;;;;2.77;2.43;;;26.70;99.90;;;;;;5050078;28;20570;-69
2023/08/11 10:27:26;;;;;;;3.10;2.80;;;26.80;99.90;;;;;;5053494;28;20469;-70
2023/08/11 10:29:53;;;;;;;3.77;2.90;;;26.80;99.90;;;;;;5069250;28;20981;-69
2023/08/11 10:32:23;;;;;;;3.57;3.27;;;26.80;99.90;;;;;;5069476;28;20458;-70
2023/08/11 10:34:49;;;;;;;3.10;2.87;;;26.90;99.90;;;;;;5061551;28;20473;-70
2023/08/11 10:37:16;;;;;;;4.20;3.30;;;26.80;99.90;;;;;;5069208;28;20901;-69
2023/08/11 10:39:43;;;;;;;4.60;3.00;;;26.80;99.90;;;;;;5069852;28;20574;-70
2023/08/11 10:42:13;;;;;;;3.43;3.00;;;26.90;99.90;;;;;;5069372;28;20460;-70
2023/08/11 10:44:44;;;;;;;5.93;3.03;;;27.00;99.90;;;;;;5049992;28;20460;-69
2023/08/11 10:47:12;;;;;;;3.27;2.97;;;27.20;99.90;;;;;;5048719;28;20529;-70
2023/08/11 10:49:43;;;;;;;3.53;2.57;;;27.30;99.90;;;;;;5049151;28;20481;-70
2023/08/11 10:52:12;;;;;;;3.50;3.20;;;27.50;99.90;;;;;;5049427;28;21006;-70
2023/08/11 10:54:38;;;;;;;4.33;2.80;;;27.50;99.90;;;;;;5054903;28;20463;-70
2023/08/11 10:57:05;;;;;;;2.90;2.70;;;27.60;99.90;;;;;;5063611;28;20455;-70
2023/08/11 10:59:34;;;;;;;2.70;2.50;;;27.70;99.90;;;;;;5047502;28;20643;-70
2023/08/11 11:02:01;;;;;;;2.80;2.60;;;27.80;99.90;;;;;;5048779;28;21042;-69
2023/08/11 11:04:30;;;;;;;3.40;2.93;;;27.90;99.90;;;;;;5037249;28;20499;-70
2023/08/11 11:06:59;;;;;;;2.53;2.33;;;27.90;99.90;;;;;;5048565;28;20974;-70
2023/08/11 11:09:27;;;;;;;2.60;2.40;;;28.00;99.90;;;;;;5039698;28;20490;-70
2023/08/11 11:11:54;;;;;;;2.90;2.60;;;28.10;99.90;;;;;;5048916;28;20471;-70
2023/08/11 11:14:21;;;;;;;2.87;2.57;;;28.20;99.90;;;;;;5049233;28;20535;-70
2023/08/11 11:16:48;;;;;;;2.50;2.20;;;28.20;99.90;;;;;;5049657;28;20459;-70
2023/08/11 11:19:15;;;;;;;3.10;2.80;;;28.40;99.90;;;;;;5049377;28;20503;-70
2023/08/11 11:21:41;;;;;;;2.70;2.50;;;28.40;99.90;;;;;;5049551;28;20452;-70
2023/08/11 11:24:10;;;;;;;3.17;2.90;;;28.40;99.90;;;;;;5049388;28;20466;-70
2023/08/11 11:26:37;;;;;;;2.90;2.63;;;28.50;99.90;;;;;;5049474;28;20476;-70
2023/08/11 11:29:05;;;;;;;3.60;2.80;;;28.60;99.90;;;;;;5049423;28;20471;-70
2023/08/11 11:31:34;;;;;;;3.37;3.07;;;28.50;99.90;;;;;;5049531;28;20451;-70
2023/08/11 11:34:01;;;;;;;3.17;2.87;;;28.60;99.90;;;;;;5049870;28;20462;-70
2023/08/11 11:36:28;;;;;;;3.30;3.00;;;28.60;99.90;;;;;;5051673;28;20460;-70
2023/08/11 11:38:56;;;;;;;3.13;2.93;;;28.70;99.90;;;;;;5048603;28;20592;-70
2023/08/11 11:41:24;;;;;;;3.60;3.30;;;28.70;99.90;;;;;;5048300;28;20458;-69
2023/08/11 11:43:51;;;;;;;3.20;2.90;;;28.70;99.90;;;;;;5048461;28;20466;-70
2023/08/11 11:46:20;;;;;;;3.30;3.00;;;28.80;99.90;;;;;;5047565;28;20475;-70
2023/08/11 11:48:48;;;;;;;3.73;3.43;;;28.80;99.90;;;;;;5048131;28;20502;-70
2023/08/11 11:51:17;;;;;;;3.07;2.77;;;28.90;99.90;;;;;;5047974;28;20460;-70
2023/08/11 11:53:45;;;;;;;2.90;2.63;;;29.00;99.90;;;;;;5048821;28;20459;-69
2023/08/11 11:56:15;;;;;;;3.90;2.80;;;29.00;99.90;;;;;;5065482;28;20466;-69
2023/08/11 11:58:45;;;;;;;3.50;2.67;;;29.10;99.90;;;;;;5068094;28;20478;-70
2023/08/11 12:01:14;;;;;;;4.70;3.10;;;29.10;99.90;;;;;;5067844;28;20512;-70
2023/08/11 12:03:41;;;;;;;9.07;5.20;;;29.30;99.90;;;;;;5068598;28;20485;-69
2023/08/11 12:06:08;;;;;;;5.97;3.50;;;29.40;99.90;;;;;;5052009;28;21025;-70
2023/08/11 12:08:37;;;;;;;3.10;2.77;;;29.40;99.90;;;;;;5048367;28;20479;-70
2023/08/11 12:11:04;;;;;;;3.60;3.07;;;29.40;99.90;;;;;;5048391;28;20873;-70
2023/08/11 12:13:31;;;;;;;3.80;3.30;;;29.50;99.90;;;;;;5050662;28;20459;-70
2023/08/11 12:16:00;;;;;;;4.60;3.27;;;29.60;99.90;;;;;;5052359;28;20474;-69
2023/08/11 12:18:28;;;;;;;3.30;3.00;;;29.70;99.90;;;;;;5051874;28;20498;-70
2023/08/11 12:20:58;;;;;;;3.13;2.83;;;29.70;99.90;;;;;;5052111;28;20974;-70
2023/08/11 12:23:25;;;;;;;4.00;2.80;;;29.80;99.90;;;;;;5051886;28;20463;-70
2023/08/11 12:25:52;;;;;;;2.90;2.70;;;29.70;99.90;;;;;;5052105;28;20494;-70
2023/08/11 12:28:19;;;;;;;3.10;2.80;;;29.80;99.90;;;;;;5051340;28;20479;-70
2023/08/11 12:30:46;;;;;;;2.90;2.60;;;29.80;99.90;;;;;;5052247;28;20463;-70
2023/08/11 12:33:14;;;;;;;3.90;3.07;;;29.90;99.90;;;;;;5052017;28;20823;-70
2023/08/11 12:35:41;;;;;;;3.80;2.60;;;29.90;99.90;;;;;;5051970;28;20463;-70
2023/08/11 12:38:12;;;;;;;3.27;2.97;;;29.80;99.90;;;;;;5051635;28;20465;-70
2023/08/11 12:40:38;;;;;;;3.90;3.40;;;29.80;99.90;;;;;;5052129;28;20456;-70
2023/08/11 12:43:05;;;;;;;3.30;2.90;;;29.90;99.90;;;;;;5051748;28;20470;-70
2023/08/11 12:45:32;;;;;;;3.50;3.20;;;29.90;99.90;;;;;;5051180;28;20467;-70
2023/08/11 12:47:58;;;;;;;3.77;3.30;;;30.00;99.90;;;;;;5051921;28;20460;-70
2023/08/11 12:50:28;;;;;;;4.57;3.27;;;30.00;99.90;;;;;;5049936;28;20514;-70